Portada
METAR-TAF:

METAR-TAF

Aeroports :

Plataforma petroliera

Hoorn-a, Països Baixos

latitud: 52-55-05N, longitud: 4-09-01E, altitud: 41 m

Observació

L'informe es va fer fa 19 minuts, a les 09:55 UTC
Vent 9 kt del Nord
Temperatura 10°C
Humitat 82%
Pressió 1027 hPa
Visibilitat 10 km o més

METAR: EHQE 090955Z AUTO 35009KT 9999 NSC 10/07 Q1027

Hora: 12:14 (10:14 UTC)


TAF: manca

Observacions i pronòstics meteorològics de més de 4000 aeroports (METAR i TAF).

Les estacions disponibles són els punts grocs i vermells al mapa.

Posi el ratolí al punt desitjat per veure el nom de l'estació.

Feu clic per veure les observacions i els pronòstics meteorològics.

Per canviar el mapa: feu clic els botons verds amb una creu de color negre per apropar; al botó verd amb un guió per allunyar la imatge; o en les fletxes verdes per a mapes adjacents.


METAR-TAF: